Airfield :
LOGIN :

Register | Disclaimer

   EN    FR    IT 

 










Legend :    VFR   Marginal VFR   IFR   Intensive IFR   Very Intensive IFR
Visi :
Ceiling :
>= 8 km
>= 3000ft
5 to 8 km
1000 to 3000 ft
1500m to 5 km
500 to 1000 ft
800 to 1500m
200 to 500 ft
< 800m
< 200 ft
Symbols :   Thunderstorms  Fog  Heavy snow  Heavy precipitations  Wind > 20 kt
SIGMETs :     Misc.  Thunderstorms  Icing  Turbulence  Mountain Waves  Volcanic Ashes






- Airport Elevation : 1568 ft


ETSB - Büchel AB

CURRENT METAR :
  • 271720Z AUTO 21015KT 3000 // ////// 05/04 Q1004 ///

EXPIRED METARs :
  • 271646Z 21015KT 5000 -RADZ BR SCT001 OVC002 05/04 Q1004 AMB FCST CANCEL
  • 271620Z 21014KT 4000 -RADZ BR SCT001 OVC002 05/04 Q1004 AMB YLO TEMPO RED
  • 271613Z 21014KT 4500 -RADZ BR SCT001 BKN002 OVC008 05/04 Q1004 AMB YLO TEMPO RED
  • 271520Z 21015KT 4500 -RADZ BR FEW001 BKN002 OVC008 05/04 Q1005 RERA AMB YLO TEMPO RED

TAF AMD TAF ETSB
Valid from the 27 at 16:00 until the 28 at 00:00 UTC


271653Z 2716/2724 21015KT 5000 -RADZ OVC003
TEMPO 2716/2724 20018G28KT 0500 RADZ OVC001 CANCEL 1700 BY ETGL



MET'MAP, your aeronautical weather chart ! - Copyright ORBIFLY December 2007 - Disclaimer

ORBIFLY MET'MAP TEAM :

Programming & Development : Alexandra Zaïnal
Concept & original design : Baudouin d'Aumeries
Assistance for programming : Marc-Olivier Méhu
Technical & hardware support : Manuel Goepfert

Contact : metmap@orbifly.com




SOURCES & CREDITS :

   NOAA